Time;durP1;ratioP1;P1;durP2;ratioP2;P2;SDS_P1;SDS_P2;PMS_P1;PMS_P2;Temp;Humidity;BMP_temperature;BMP_pressure;BME280_temperature;BME280_humidity;BME280_pressure;Samples;Min_cycle;Max_cycle;Signal;HPM_P1;HPM_P2
2022/07/05 00:01:00;;;;;;;2.35;1.23;;;18.70;99.90;;;;;;5023063;28;20030;-85
2022/07/05 00:03:27;;;;;;;2.72;1.30;;;18.60;99.90;;;;;;5021725;28;20498;-85
2022/07/05 00:05:54;;;;;;;1.58;1.17;;;18.60;99.90;;;;;;5031255;28;20026;-84
2022/07/05 00:08:19;;;;;;;1.65;1.02;;;18.60;99.90;;;;;;5044163;28;20028;-85
2022/07/05 00:10:45;;;;;;;1.58;0.90;;;18.60;99.90;;;;;;5045132;28;20104;-84
2022/07/05 00:13:11;;;;;;;1.20;1.10;;;18.60;99.90;;;;;;5048602;28;20109;-84
2022/07/05 00:15:37;;;;;;;1.05;0.98;;;18.60;99.90;;;;;;5044689;28;20029;-85
2022/07/05 00:18:03;;;;;;;1.30;1.20;;;18.60;99.90;;;;;;5044302;28;20026;-85
2022/07/05 00:20:29;;;;;;;1.85;0.98;;;18.60;99.90;;;;;;5047812;28;20085;-84
2022/07/05 00:22:55;;;;;;;1.83;1.20;;;18.60;99.90;;;;;;5041821;28;20014;-86
2022/07/05 00:25:20;;;;;;;1.75;1.08;;;18.60;99.90;;;;;;5041939;28;20045;-83
2022/07/05 00:27:46;;;;;;;1.75;1.10;;;18.70;99.90;;;;;;5036056;28;20170;-84
2022/07/05 00:30:13;;;;;;;1.25;0.90;;;18.70;99.90;;;;;;5021764;28;20482;-83
2022/07/05 00:32:40;;;;;;;1.25;1.15;;;18.70;99.90;;;;;;5026645;28;20026;-84
2022/07/05 00:35:07;;;;;;;1.63;1.17;;;18.70;99.90;;;;;;5020050;28;20045;-84
2022/07/05 00:37:33;;;;;;;3.08;0.90;;;18.60;99.90;;;;;;5027458;28;20061;-85
2022/07/05 00:39:59;;;;;;;1.60;1.02;;;18.50;99.90;;;;;;5039905;28;20378;-84
2022/07/05 00:42:24;;;;;;;0.93;0.85;;;18.50;99.90;;;;;;5048096;28;20060;-83
2022/07/05 00:44:50;;;;;;;2.17;1.02;;;18.40;99.90;;;;;;5040878;28;20076;-84
2022/07/05 00:47:16;;;;;;;1.67;1.08;;;18.30;99.90;;;;;;5038191;28;20021;-85
2022/07/05 00:49:43;;;;;;;1.33;1.20;;;18.30;99.90;;;;;;5021769;28;20061;-84
2022/07/05 00:52:11;;;;;;;1.40;1.27;;;18.20;99.90;;;;;;5032157;28;20032;-85
2022/07/05 00:54:38;;;;;;;2.58;1.00;;;18.20;99.90;;;;;;5037037;28;20569;-85
2022/07/05 00:57:05;;;;;;;2.50;1.17;;;18.10;99.90;;;;;;5041073;28;20089;-86
2022/07/05 00:59:31;;;;;;;2.95;1.23;;;18.10;99.90;;;;;;5046159;28;20021;-85
2022/07/05 01:01:57;;;;;;;2.45;1.40;;;18.10;99.90;;;;;;5043082;28;20026;-86
2022/07/05 01:04:23;;;;;;;1.13;1.13;;;18.10;99.90;;;;;;5043465;28;20033;-85
2022/07/05 01:06:51;;;;;;;1.40;1.30;;;18.00;99.90;;;;;;5040648;28;20036;-84
2022/07/05 01:09:19;;;;;;;1.25;1.15;;;18.00;99.90;;;;;;5039240;28;20037;-87
2022/07/05 01:14:19;;;;;;;2.75;1.35;;;18.00;99.90;;;;;;5017691;28;20056;-87
2022/07/05 01:24:42;;;;;;;1.67;1.53;;;18.00;99.90;;;;;;4964565;28;20044;-86
2022/07/05 03:19:19;;;;;;;1.67;1.45;;;17.40;99.90;;;;;;5017976;28;20308;-86
2022/07/05 03:22:23;;;;;;;2.42;1.65;;;17.50;99.90;;;;;;5015084;28;20034;-86
2022/07/05 03:24:49;;;;;;;1.92;1.38;;;17.60;99.90;;;;;;5007061;28;20095;-84
2022/07/05 03:27:15;;;;;;;2.03;1.83;;;17.60;99.90;;;;;;5012071;28;20425;-83
2022/07/05 03:29:43;;;;;;;2.05;1.50;;;17.70;99.90;;;;;;5025414;28;20026;-84
2022/07/05 03:32:09;;;;;;;2.25;1.42;;;17.70;99.90;;;;;;5021516;28;20044;-83
2022/07/05 03:34:35;;;;;;;4.50;1.52;;;17.80;99.90;;;;;;5021637;28;20034;-84
2022/07/05 03:37:00;;;;;;;1.63;1.15;;;17.90;99.90;;;;;;5022254;28;20073;-84
2022/07/05 03:39:26;;;;;;;2.67;1.40;;;17.90;99.90;;;;;;5018959;28;20022;-83
2022/07/05 03:41:52;;;;;;;4.82;1.70;;;17.90;99.90;;;;;;4999525;28;20029;-84
2022/07/05 03:44:21;;;;;;;2.42;1.30;;;18.00;99.90;;;;;;5017305;28;20063;-84
2022/07/05 03:46:46;;;;;;;2.58;1.55;;;18.00;99.90;;;;;;4998511;28;20033;-84
2022/07/05 03:49:12;;;;;;;1.95;1.30;;;18.00;99.90;;;;;;4998937;28;20325;-84
2022/07/05 03:51:38;;;;;;;0.98;0.98;;;18.00;99.90;;;;;;4997790;28;20180;-85
2022/07/05 03:54:03;;;;;;;1.70;1.30;;;18.00;99.90;;;;;;4996796;28;20406;-86
2022/07/05 03:56:29;;;;;;;2.80;1.40;;;18.00;99.90;;;;;;4998236;28;20026;-85
2022/07/05 03:58:55;;;;;;;2.70;1.35;;;17.80;99.90;;;;;;5014425;28;20026;-84
2022/07/05 04:01:21;;;;;;;1.45;1.20;;;17.80;99.90;;;;;;4997073;28;20483;-85
2022/07/05 04:03:47;;;;;;;1.42;1.33;;;17.90;99.90;;;;;;5014248;28;20026;-85
2022/07/05 04:06:13;;;;;;;1.35;1.25;;;17.80;99.90;;;;;;5014839;28;20030;-84
2022/07/05 04:08:39;;;;;;;1.23;0.95;;;17.80;99.90;;;;;;5014474;28;20027;-85
2022/07/05 04:11:05;;;;;;;1.27;1.10;;;17.70;99.90;;;;;;5015248;28;20026;-86
2022/07/05 04:13:31;;;;;;;2.28;1.20;;;17.70;99.90;;;;;;4999057;28;20022;-86
2022/07/05 04:15:57;;;;;;;4.07;1.15;;;17.80;99.90;;;;;;5003652;28;20104;-84
2022/07/05 04:18:23;;;;;;;1.25;1.00;;;17.90;99.90;;;;;;5022577;28;20026;-84
2022/07/05 04:20:48;;;;;;;1.35;1.30;;;17.90;99.90;;;;;;5002819;28;20579;-86
2022/07/05 04:23:14;;;;;;;1.52;1.42;;;17.90;99.90;;;;;;5018926;28;20022;-85
2022/07/05 04:25:40;;;;;;;1.42;1.33;;;17.90;99.90;;;;;;5018918;28;20084;-84
2022/07/05 04:28:06;;;;;;;2.53;1.40;;;17.90;99.90;;;;;;5018267;28;20025;-85
2022/07/05 04:30:32;;;;;;;1.23;1.10;;;18.00;99.90;;;;;;5021398;28;20026;-83
2022/07/05 04:32:57;;;;;;;9.45;1.45;;;18.00;99.90;;;;;;5030343;28;20252;-85
2022/07/05 04:35:24;;;;;;;2.50;1.40;;;18.00;99.90;;;;;;5030967;28;20147;-83
2022/07/05 04:37:49;;;;;;;3.60;1.85;;;18.00;99.90;;;;;;5039398;28;20038;-84
2022/07/05 04:40:15;;;;;;;1.50;1.20;;;18.00;99.90;;;;;;5035579;28;20029;-86
2022/07/05 04:42:42;;;;;;;1.52;1.23;;;18.10;99.90;;;;;;5018625;28;20463;-85
2022/07/05 04:45:09;;;;;;;1.08;0.98;;;18.30;99.90;;;;;;5004596;28;20034;-83
2022/07/05 04:47:35;;;;;;;0.95;0.95;;;18.40;99.90;;;;;;5023752;28;20030;-83
2022/07/05 04:50:02;;;;;;;2.03;1.70;;;18.60;99.90;;;;;;5022848;28;20025;-81
2022/07/05 04:52:27;;;;;;;2.55;1.30;;;18.90;99.90;;;;;;5020802;28;20036;-81
2022/07/05 04:54:54;;;;;;;1.13;1.10;;;19.00;99.90;;;;;;5016190;28;20062;-80
2022/07/05 04:57:19;;;;;;;1.85;0.98;;;19.10;99.90;;;;;;5018721;28;20033;-83
2022/07/05 04:59:45;;;;;;;2.45;1.20;;;19.20;99.90;;;;;;5019863;28;20025;-84
2022/07/05 05:02:15;;;;;;;3.40;1.40;;;19.20;99.90;;;;;;5036457;28;20067;-85
2022/07/05 05:04:40;;;;;;;1.85;1.25;;;19.20;99.90;;;;;;5024835;28;20033;-84
2022/07/05 05:07:06;;;;;;;1.05;1.05;;;19.20;99.90;;;;;;5042895;28;20426;-85
2022/07/05 05:09:32;;;;;;;0.80;0.80;;;19.30;99.90;;;;;;5040922;28;20466;-83
2022/07/05 05:11:57;;;;;;;1.10;1.02;;;19.50;99.90;;;;;;5018297;28;20125;-85
2022/07/05 05:14:23;;;;;;;1.40;1.30;;;20.50;99.90;;;;;;5028979;28;20038;-82
2022/07/05 05:16:49;;;;;;;1.02;0.82;;;21.10;99.90;;;;;;5027116;28;20029;-83
2022/07/05 05:19:14;;;;;;;1.25;1.15;;;21.10;99.90;;;;;;5012266;28;20214;-81
2022/07/05 05:21:40;;;;;;;1.58;1.00;;;23.20;99.90;;;;;;5029262;28;20030;-80
2022/07/05 05:24:06;;;;;;;0.80;0.80;;;26.00;92.40;;;;;;5029696;28;20058;-82
2022/07/05 05:26:32;;;;;;;1.52;1.38;;;28.30;83.30;;;;;;5027996;28;20192;-82
2022/07/05 05:28:58;;;;;;;2.72;1.15;;;30.10;70.90;;;;;;5029352;28;20037;-82
2022/07/05 05:31:23;;;;;;;1.98;1.10;;;30.90;64.80;;;;;;5010110;28;20056;-82
2022/07/05 05:33:49;;;;;;;0.98;0.85;;;31.40;62.20;;;;;;5029951;28;20030;-83
2022/07/05 05:36:15;;;;;;;0.93;0.90;;;31.70;60.30;;;;;;5032273;28;20268;-84
2022/07/05 05:38:40;;;;;;;0.70;0.70;;;32.20;59.00;;;;;;5034181;28;20172;-84
2022/07/05 05:41:06;;;;;;;1.05;1.05;;;32.90;57.40;;;;;;5028336;28;20033;-83
2022/07/05 05:43:32;;;;;;;1.10;1.00;;;32.70;56.00;;;;;;5031347;28;20069;-83
2022/07/05 05:45:58;;;;;;;3.08;1.40;;;32.90;56.20;;;;;;5032456;28;20044;-83
2022/07/05 05:48:24;;;;;;;1.10;1.10;;;33.40;54.50;;;;;;5031056;28;20053;-82
2022/07/05 05:50:50;;;;;;;0.98;0.93;;;33.30;54.00;;;;;;5014827;28;20125;-84
2022/07/05 05:53:16;;;;;;;2.92;1.10;;;33.50;54.40;;;;;;5014302;28;20028;-84
2022/07/05 05:55:42;;;;;;;1.42;1.33;;;33.70;52.80;;;;;;5008277;28;20117;-83
2022/07/05 05:58:14;;;;;;;1.95;1.40;;;33.40;53.20;;;;;;5001005;28;20097;-83
2022/07/05 06:00:42;;;;;;;1.92;1.73;;;33.40;53.20;;;;;;4999400;28;20026;-82
2022/07/05 06:03:09;;;;;;;2.40;1.27;;;33.30;53.20;;;;;;5013171;28;20117;-83
2022/07/05 06:05:34;;;;;;;1.30;1.20;;;33.50;53.80;;;;;;5017434;28;20041;-84
2022/07/05 06:08:00;;;;;;;1.30;1.20;;;34.00;53.40;;;;;;5023359;28;20018;-83
2022/07/05 06:10:29;;;;;;;1.83;1.65;;;34.30;51.80;;;;;;5028084;28;20026;-84
2022/07/05 06:13:16;;;;;;;2.70;1.70;;;34.20;51.40;;;;;;5026947;28;20080;-83
2022/07/05 06:15:42;;;;;;;4.55;2.13;;;33.80;51.50;;;;;;5020142;28;20145;-83
2022/07/05 06:18:09;;;;;;;3.72;2.08;;;33.50;52.70;;;;;;5019973;28;20025;-83
2022/07/05 06:20:36;;;;;;;4.30;2.03;;;33.60;52.60;;;;;;5029931;28;20040;-84
2022/07/05 06:23:04;;;;;;;3.30;1.75;;;33.60;52.30;;;;;;5021160;28;20022;-85
2022/07/05 06:25:31;;;;;;;3.03;2.60;;;33.60;52.60;;;;;;5001376;28;20037;-84
2022/07/05 06:27:59;;;;;;;3.20;1.60;;;33.70;51.70;;;;;;5028150;28;20035;-85
2022/07/05 06:30:27;;;;;;;2.42;1.80;;;33.40;52.40;;;;;;5019206;28;20026;-85
2022/07/05 06:33:00;;;;;;;3.28;1.95;;;33.80;52.90;;;;;;5019488;28;20363;-84
2022/07/05 06:35:27;;;;;;;5.00;2.10;;;34.30;51.50;;;;;;5007891;28;20034;-84
2022/07/05 06:38:14;;;;;;;2.88;1.88;;;34.20;51.10;;;;;;5016451;28;20101;-84
2022/07/05 06:40:43;;;;;;;1.63;1.45;;;34.10;51.10;;;;;;4971318;28;20372;-84
2022/07/05 06:43:12;;;;;;;2.47;1.92;;;34.20;51.50;;;;;;5020133;28;20022;-84
2022/07/05 06:45:38;;;;;;;1.63;1.52;;;34.50;51.20;;;;;;5004327;28;20483;-83
2022/07/05 06:48:06;;;;;;;3.05;1.75;;;34.80;49.90;;;;;;5037270;28;20044;-86
2022/07/05 06:50:35;;;;;;;5.65;2.35;;;34.60;49.60;;;;;;5008848;28;20025;-86
2022/07/05 06:53:05;;;;;;;4.75;1.77;;;34.50;50.10;;;;;;4988250;28;20089;-88
2022/07/05 06:55:31;;;;;;;4.00;2.38;;;34.10;51.00;;;;;;4975970;28;20039;-86
2022/07/05 06:58:00;;;;;;;3.75;1.77;;;34.00;51.00;;;;;;4964265;28;20027;-84
2022/07/05 07:01:11;;;;;;;2.38;1.90;;;34.10;51.00;;;;;;5013951;28;20618;-86
2022/07/05 07:04:14;;;;;;;4.32;1.60;;;34.30;51.10;;;;;;5015920;28;20086;-85
2022/07/05 07:10:21;;;;;;;2.30;2.00;;;33.40;50.60;;;;;;5028874;28;20500;-86
2022/07/05 07:16:16;;;;;;;4.40;1.70;;;29.00;58.70;;;;;;5027958;28;20018;-87
2022/07/05 07:19:34;;;;;;;3.10;2.28;;;27.70;61.80;;;;;;4998240;28;20030;-86
2022/07/05 07:22:49;;;;;;;2.58;2.03;;;26.70;63.50;;;;;;5035495;28;20014;-85
2022/07/05 07:25:23;;;;;;;2.63;1.75;;;26.10;65.00;;;;;;5011663;28;20041;-84
2022/07/05 07:27:57;;;;;;;2.05;1.88;;;25.80;66.20;;;;;;5013578;28;20176;-85
2022/07/05 07:31:03;;;;;;;;;;;;;;;;;;;;;
2022/07/05 07:44:24;;;;;;;4.63;1.90;;;25.30;66.20;;;;;;1432224;26;20053;-85
2022/07/05 07:46:50;;;;;;;6.05;1.40;;;25.00;65.20;;;;;;5044009;28;20021;-85
2022/07/05 07:49:16;;;;;;;2.97;1.50;;;24.80;64.40;;;;;;5026897;28;20032;-85
2022/07/05 07:51:42;;;;;;;1.65;1.40;;;24.90;65.30;;;;;;5047234;28;20025;-85
2022/07/05 07:54:08;;;;;;;6.57;2.05;;;25.00;62.40;;;;;;5030209;28;20020;-85
2022/07/05 07:56:33;;;;;;;2.30;1.42;;;24.90;61.10;;;;;;5029028;28;20028;-84
2022/07/05 07:58:59;;;;;;;4.13;1.52;;;24.70;63.40;;;;;;5028960;28;20026;-83
2022/07/05 08:01:25;;;;;;;3.45;1.75;;;24.70;63.70;;;;;;5046880;28;20033;-84
2022/07/05 08:03:52;;;;;;;3.38;1.33;;;24.60;64.50;;;;;;5035687;28;20034;-85
2022/07/05 08:06:20;;;;;;;4.50;1.58;;;24.50;65.40;;;;;;5029749;28;20152;-83
2022/07/05 08:08:47;;;;;;;3.38;1.77;;;24.40;65.10;;;;;;5030194;28;20045;-85
2022/07/05 08:11:13;;;;;;;4.43;2.03;;;24.40;63.50;;;;;;5028716;28;20026;-84
2022/07/05 08:13:40;;;;;;;3.97;1.90;;;24.30;64.20;;;;;;5026147;28;20421;-84
2022/07/05 08:16:07;;;;;;;2.67;1.83;;;24.30;64.10;;;;;;5028325;28;20018;-84
2022/07/05 08:24:05;;;;;;;2.33;1.58;;;24.30;63.30;;;;;;5040716;28;20029;-84
2022/07/05 08:27:31;;;;;;;4.72;1.60;;;24.40;63.70;;;;;;5045767;28;20029;-86
2022/07/05 09:14:38;;;;;;;1.88;1.02;;;25.00;52.10;;;;;;4945961;28;20030;-87
2022/07/05 09:17:04;;;;;;;1.60;1.00;;;25.00;54.60;;;;;;5002191;28;20607;-87
2022/07/05 09:20:08;;;;;;;1.08;1.00;;;25.00;53.90;;;;;;5007261;28;20018;-85
2022/07/05 09:22:45;;;;;;;3.42;1.35;;;25.10;53.90;;;;;;4992844;28;20054;-81
2022/07/05 09:25:40;;;;;;;5.00;1.25;;;25.30;53.40;;;;;;5008865;28;20042;-81
2022/07/05 09:28:06;;;;;;;1.92;0.80;;;25.30;53.60;;;;;;4999572;28;20034;-81
2022/07/05 09:30:38;;;;;;;2.90;1.50;;;25.40;54.70;;;;;;5006285;28;20022;-81
2022/07/05 09:33:05;;;;;;;2.22;1.20;;;25.60;53.00;;;;;;5030195;28;20024;-82
2022/07/05 09:35:31;;;;;;;2.85;1.52;;;25.70;52.50;;;;;;5013374;28;20045;-82
2022/07/05 09:37:57;;;;;;;2.35;1.17;;;25.90;51.80;;;;;;5014926;28;20104;-81
2022/07/05 09:40:23;;;;;;;2.58;1.30;;;26.20;52.30;;;;;;5008209;28;20026;-82
2022/07/05 09:42:48;;;;;;;2.75;1.40;;;26.40;52.00;;;;;;5008431;28;20030;-83
2022/07/05 09:45:23;;;;;;;2.70;1.38;;;26.30;50.70;;;;;;5008993;28;20090;-81
2022/07/05 09:47:49;;;;;;;1.90;1.30;;;25.90;51.90;;;;;;5007897;28;20023;-83
2022/07/05 09:50:32;;;;;;;3.58;1.38;;;25.80;53.10;;;;;;5009420;28;20042;-84
2022/07/05 09:52:57;;;;;;;3.15;1.25;;;25.70;52.70;;;;;;4986564;28;20050;-83
2022/07/05 09:55:23;;;;;;;1.83;1.30;;;25.70;52.80;;;;;;4984814;28;20387;-82
2022/07/05 09:57:50;;;;;;;3.50;1.15;;;26.20;50.30;;;;;;5007647;28;20022;-84
2022/07/05 10:00:21;;;;;;;2.40;1.00;;;26.80;49.60;;;;;;5008265;28;20038;-84
2022/07/05 10:02:52;;;;;;;3.57;1.30;;;27.10;48.40;;;;;;5010010;28;20021;-82
2022/07/05 10:05:25;;;;;;;1.10;0.80;;;27.00;48.90;;;;;;4995596;28;20290;-84
2022/07/05 10:10:52;;;;;;;2.75;1.50;;;26.80;50.00;;;;;;5005654;28;20033;-82
2022/07/05 10:13:19;;;;;;;1.90;1.60;;;27.20;49.20;;;;;;4997354;28;20041;-82
2022/07/05 10:15:46;;;;;;;1.48;1.13;;;27.50;48.30;;;;;;5012448;28;20054;-83
2022/07/05 10:18:13;;;;;;;1.58;1.23;;;27.70;48.00;;;;;;4994183;28;20041;-83
2022/07/05 10:20:46;;;;;;;2.72;1.30;;;28.00;48.10;;;;;;5007361;28;20026;-86
2022/07/05 10:23:17;;;;;;;4.32;1.40;;;28.20;46.70;;;;;;5006757;28;20026;-84
2022/07/05 10:25:49;;;;;;;3.10;1.35;;;27.50;47.10;;;;;;5010343;28;20030;-83
2022/07/05 10:28:19;;;;;;;;;;;26.90;48.20;;;;;;4995967;28;20031;-84
2022/07/05 10:30:46;;;;;;;2.13;1.40;;;26.30;48.30;;;;;;5011784;28;19905;-83
2022/07/05 10:33:16;;;;;;;3.40;1.70;;;26.10;49.40;;;;;;5005779;28;20089;-84
2022/07/05 10:35:43;;;;;;;1.20;1.10;;;26.40;49.60;;;;;;5001686;28;20520;-84
2022/07/05 10:38:09;;;;;;;3.17;1.30;;;26.90;48.60;;;;;;5004003;28;20109;-84
2022/07/05 10:40:36;;;;;;;2.30;1.30;;;27.30;47.80;;;;;;5001757;28;20061;-82
2022/07/05 10:43:03;;;;;;;3.42;1.45;;;27.60;46.20;;;;;;4984781;28;20030;-83
2022/07/05 10:45:31;;;;;;;1.75;1.30;;;28.10;46.10;;;;;;5001872;28;20121;-83
2022/07/05 10:48:17;;;;;;;1.95;1.40;;;28.40;45.70;;;;;;5001826;28;20388;-83
2022/07/05 10:50:52;;;;;;;3.88;1.25;;;28.60;43.90;;;;;;5002001;28;20030;-83
2022/07/05 10:53:39;;;;;;;2.33;1.40;;;28.60;42.90;;;;;;4985947;28;20022;-84
2022/07/05 10:56:05;;;;;;;2.17;1.17;;;28.60;43.90;;;;;;4997411;28;20029;-84
2022/07/05 10:58:36;;;;;;;3.28;1.13;;;28.40;44.50;;;;;;4991565;28;20043;-85
2022/07/05 11:01:23;;;;;;;0.90;0.90;;;27.90;44.50;;;;;;4984870;28;20022;-83
2022/07/05 11:04:06;;;;;;;1.92;1.30;;;27.00;45.10;;;;;;4985166;28;20399;-84
2022/07/05 11:06:51;;;;;;;2.00;1.13;;;26.40;45.90;;;;;;5004003;28;20416;-83
2022/07/05 11:12:06;;;;;;;2.38;1.15;;;26.20;46.90;;;;;;4987671;28;20128;-84
2022/07/05 11:14:37;;;;;;;1.20;0.98;;;26.30;45.60;;;;;;4983525;28;20038;-84
2022/07/05 11:17:22;;;;;;;2.65;1.17;;;26.30;45.80;;;;;;5000615;28;20029;-85
2022/07/05 11:20:39;;;;;;;2.33;1.58;;;26.40;45.80;;;;;;4980586;28;20407;-83
2022/07/05 11:23:10;;;;;;;2.78;1.40;;;26.20;46.40;;;;;;4998232;28;20090;-83
2022/07/05 11:25:39;;;;;;;2.25;1.00;;;25.80;46.20;;;;;;4997224;28;20030;-82
2022/07/05 11:29:08;;;;;;;1.25;1.00;;;25.70;46.10;;;;;;5008723;28;20038;-84
2022/07/05 11:32:37;;;;;;;1.20;1.10;;;26.10;44.60;;;;;;4928495;29;20529;-84
2022/07/05 11:35:38;;;;;;;2.92;0.80;;;26.90;43.60;;;;;;4899089;29;20076;-83
2022/07/05 11:38:04;;;;;;;4.32;1.10;;;27.40;42.00;;;;;;4924164;29;20537;-84
2022/07/05 11:41:17;;;;;;;0.60;0.60;;;27.60;41.30;;;;;;4981126;28;20030;-84
2022/07/05 11:44:13;;;;;;;2.22;0.90;;;27.90;41.10;;;;;;4974273;28;20031;-83
2022/07/05 11:47:03;;;;;;;3.38;1.30;;;28.30;41.00;;;;;;4994523;28;20054;-84
2022/07/05 11:49:33;;;;;;;3.42;1.20;;;28.40;41.80;;;;;;4997973;28;20135;-83
2022/07/05 11:52:08;;;;;;;1.92;0.98;;;28.50;41.90;;;;;;4978386;28;20081;-85
2022/07/05 11:54:59;;;;;;;1.20;1.00;;;28.30;41.90;;;;;;5001134;28;20463;-84
2022/07/05 11:57:54;;;;;;;0.90;0.90;;;28.00;42.40;;;;;;4983318;28;20113;-83
2022/07/05 12:00:37;;;;;;;0.95;0.90;;;27.80;43.10;;;;;;4999957;28;20570;-84
2022/07/05 12:03:14;;;;;;;1.90;1.08;;;27.90;42.20;;;;;;5003288;28;20129;-86
2022/07/05 12:05:42;;;;;;;4.47;1.10;;;28.00;42.50;;;;;;4984987;28;20026;-82
2022/07/05 12:08:09;;;;;;;0.95;0.90;;;28.10;41.70;;;;;;4985392;28;20105;-82
2022/07/05 12:13:20;;;;;;;3.45;1.23;;;28.30;42.40;;;;;;5001179;28;20036;-84
2022/07/05 12:15:46;;;;;;;1.35;1.00;;;28.70;41.00;;;;;;5001131;28;20022;-84
2022/07/05 12:18:12;;;;;;;1.73;1.02;;;29.00;40.50;;;;;;5000742;28;20026;-84
2022/07/05 12:23:55;;;;;;;1.08;0.75;;;29.40;40.60;;;;;;5326157;22;20236;-86
2022/07/05 12:27:02;;;;;;;2.05;1.17;;;29.40;39.70;;;;;;5002312;28;20486;-86
2022/07/05 12:29:38;;;;;;;2.53;1.10;;;29.20;40.10;;;;;;5004479;28;20025;-85
2022/07/05 12:32:28;;;;;;;1.70;0.82;;;29.10;40.40;;;;;;5007920;28;20037;-83
2022/07/05 12:46:05;;;;;;;1.17;0.98;;;28.20;40.50;;;;;;5023502;28;20033;-85
2022/07/05 12:49:10;;;;;;;2.35;1.05;;;27.70;41.80;;;;;;4983909;28;20046;-85
2022/07/05 12:52:20;;;;;;;0.88;0.82;;;27.80;41.80;;;;;;4994068;28;20286;-86
2022/07/05 12:58:24;;;;;;;3.95;1.38;;;28.00;41.70;;;;;;5021989;28;20044;-86
2022/07/05 13:04:13;;;;;;;1.60;0.95;;;28.00;42.70;;;;;;5020844;28;20104;-81
2022/07/05 13:06:43;;;;;;;4.20;1.10;;;28.40;41.60;;;;;;5004134;28;20151;-84
2022/07/05 13:09:57;;;;;;;1.20;1.10;;;28.70;39.70;;;;;;5004642;28;20498;-83
2022/07/05 13:15:29;;;;;;;3.58;1.33;;;28.20;39.30;;;;;;5020430;28;20072;-83
2022/07/05 13:17:55;;;;;;;2.05;0.90;;;28.10;39.40;;;;;;5006144;28;20025;-83
2022/07/05 13:20:22;;;;;;;2.63;2.00;;;28.20;39.70;;;;;;5003350;28;20022;-83
2022/07/05 13:22:48;;;;;;;1.25;1.20;;;28.00;39.50;;;;;;5018676;28;20045;-83
2022/07/05 13:25:15;;;;;;;2.75;1.05;;;28.20;40.70;;;;;;5019368;28;20026;-82
2022/07/05 13:27:43;;;;;;;2.45;1.40;;;28.50;39.10;;;;;;5002556;28;20029;-82
2022/07/05 13:30:12;;;;;;;3.22;1.02;;;28.70;39.20;;;;;;5003780;28;20066;-82
2022/07/05 13:32:46;;;;;;;2.35;1.10;;;28.90;39.80;;;;;;5019822;28;20032;-82
2022/07/05 13:35:17;;;;;;;1.98;1.67;;;28.80;39.40;;;;;;5001211;28;20073;-83
2022/07/05 15:18:27;;;;;;;1.08;0.98;;;28.80;38.80;;;;;;4184713;23;20416;-84
2022/07/05 15:21:39;;;;;;;2.47;1.25;;;29.20;39.00;;;;;;5004815;28;20402;-84
2022/07/05 18:00:49;;;;;;;1.95;1.45;;;26.30;44.90;;;;;;5011074;28;19916;-82
2022/07/05 18:03:18;;;;;;;3.25;1.52;;;26.10;46.90;;;;;;5012008;28;20049;-82
2022/07/05 18:05:44;;;;;;;1.77;1.30;;;25.90;46.50;;;;;;5013050;28;20022;-81
2022/07/05 18:08:10;;;;;;;1.65;1.40;;;25.70;47.30;;;;;;5002659;28;20040;-81
2022/07/05 18:10:36;;;;;;;1.80;1.27;;;25.50;47.30;;;;;;5015116;28;20038;-83
2022/07/05 18:13:02;;;;;;;2.97;1.50;;;25.30;47.40;;;;;;5014287;28;20023;-82
2022/07/05 18:15:27;;;;;;;5.78;1.55;;;25.10;48.50;;;;;;5014879;28;20049;-84
2022/07/05 18:17:53;;;;;;;2.22;1.33;;;25.00;48.90;;;;;;5010427;28;20026;-82
2022/07/05 18:20:19;;;;;;;1.90;1.10;;;25.00;50.00;;;;;;5009139;28;20026;-83
2022/07/05 18:22:44;;;;;;;1.45;1.30;;;24.90;50.10;;;;;;5008232;28;20538;-83
2022/07/05 18:25:10;;;;;;;4.00;1.60;;;24.80;50.50;;;;;;5006242;28;20133;-81
2022/07/05 18:27:36;;;;;;;3.65;1.67;;;24.70;50.10;;;;;;5008153;28;20030;-82
2022/07/05 18:30:02;;;;;;;2.63;1.65;;;24.60;50.30;;;;;;5008001;28;20077;-82
2022/07/05 18:32:27;;;;;;;3.75;1.85;;;24.60;52.20;;;;;;5008243;28;20082;-81
2022/07/05 18:34:53;;;;;;;1.98;1.23;;;24.60;51.10;;;;;;5006018;28;20038;-82
2022/07/05 18:37:19;;;;;;;2.85;1.42;;;24.50;51.70;;;;;;5007574;28;20450;-82
2022/07/05 18:39:44;;;;;;;3.08;1.48;;;24.40;51.00;;;;;;5007057;28;20022;-81
2022/07/05 18:42:10;;;;;;;3.88;1.20;;;24.40;51.40;;;;;;5008048;28;20027;-82
2022/07/05 18:44:36;;;;;;;2.00;1.50;;;24.40;50.90;;;;;;5002003;28;20137;-82
2022/07/05 18:47:01;;;;;;;1.85;1.30;;;24.40;51.00;;;;;;5011625;28;20054;-82
2022/07/05 18:49:27;;;;;;;1.63;1.17;;;24.40;51.50;;;;;;5009160;28;20156;-83
2022/07/05 18:51:53;;;;;;;1.95;1.50;;;24.40;50.90;;;;;;5013574;28;20030;-82
2022/07/05 18:54:18;;;;;;;2.65;1.55;;;24.30;50.80;;;;;;5009927;28;20034;-83
2022/07/05 18:56:44;;;;;;;2.17;1.65;;;24.30;51.00;;;;;;5018884;28;20110;-82
2022/07/05 18:59:10;;;;;;;1.95;1.70;;;24.20;51.20;;;;;;5000831;28;20045;-84
2022/07/05 19:01:35;;;;;;;4.00;2.00;;;24.10;51.20;;;;;;4992601;28;20034;-82
2022/07/05 19:04:02;;;;;;;2.38;2.05;;;24.10;51.90;;;;;;4994663;28;20099;-81
2022/07/05 19:14:42;;;;;;;3.67;2.03;;;23.80;53.20;;;;;;5016108;28;20056;-82
2022/07/05 19:17:08;;;;;;;2.10;1.70;;;23.70;53.10;;;;;;5009070;28;20027;-82
2022/07/05 19:19:33;;;;;;;3.17;1.77;;;23.70;52.90;;;;;;5000196;28;20062;-82
2022/07/05 19:21:59;;;;;;;3.25;1.90;;;23.60;53.00;;;;;;5006228;28;20029;-82
2022/07/05 19:24:25;;;;;;;2.97;2.00;;;23.50;53.60;;;;;;5006664;28;20034;-82
2022/07/05 19:26:50;;;;;;;4.40;1.92;;;23.50;54.00;;;;;;5008019;28;20034;-82
2022/07/05 19:29:16;;;;;;;6.55;2.25;;;23.50;53.80;;;;;;5014083;28;20060;-82
2022/07/05 19:31:43;;;;;;;3.85;2.30;;;23.40;53.90;;;;;;5012573;28;20030;-83
2022/07/05 19:34:08;;;;;;;10.45;2.05;;;23.40;54.40;;;;;;5008836;28;20090;-82
2022/07/05 19:36:34;;;;;;;7.15;2.08;;;23.40;54.60;;;;;;5008425;28;20034;-82
2022/07/05 19:39:00;;;;;;;3.65;1.67;;;23.40;55.30;;;;;;5008795;28;20025;-82
2022/07/05 19:41:26;;;;;;;2.67;1.70;;;23.30;55.20;;;;;;5002918;28;20054;-83
2022/07/05 19:43:52;;;;;;;4.35;1.95;;;23.30;55.60;;;;;;4964214;28;20050;-81
2022/07/05 19:46:17;;;;;;;2.13;1.50;;;23.20;55.40;;;;;;4991807;28;20034;-81
2022/07/05 19:48:44;;;;;;;2.90;1.85;;;23.20;55.50;;;;;;5014312;28;20027;-81
2022/07/05 19:51:10;;;;;;;5.53;1.50;;;23.10;55.70;;;;;;5014179;28;20018;-82
2022/07/05 19:53:36;;;;;;;2.20;1.60;;;23.10;56.20;;;;;;5014687;28;20119;-81
2022/07/05 19:56:03;;;;;;;4.72;1.50;;;23.00;56.40;;;;;;5015404;28;20010;-82
2022/07/05 19:58:30;;;;;;;2.55;1.50;;;22.90;56.70;;;;;;5014554;28;20015;-82
2022/07/05 20:00:57;;;;;;;4.40;1.40;;;22.80;56.60;;;;;;5013272;28;20036;-82
2022/07/05 20:03:22;;;;;;;1.83;1.42;;;22.80;56.70;;;;;;5014782;28;20045;-82
2022/07/05 20:05:48;;;;;;;4.07;1.42;;;22.70;57.20;;;;;;5013845;28;20042;-81
2022/07/05 20:08:14;;;;;;;1.88;1.50;;;22.60;56.90;;;;;;5015436;28;20026;-81
2022/07/05 20:10:39;;;;;;;2.35;1.30;;;22.60;57.40;;;;;;5016467;28;20030;-81
2022/07/05 20:13:05;;;;;;;2.05;1.60;;;22.40;57.30;;;;;;5014805;28;20030;-82
2022/07/05 20:15:31;;;;;;;3.08;1.42;;;22.40;57.20;;;;;;5014545;28;20041;-82
2022/07/05 20:17:56;;;;;;;2.85;1.40;;;22.30;57.30;;;;;;5011376;28;20101;-82
2022/07/05 20:20:22;;;;;;;2.88;1.40;;;22.20;57.10;;;;;;5011348;28;20022;-83
2022/07/05 20:22:48;;;;;;;3.75;1.33;;;22.20;57.50;;;;;;5011509;28;20034;-82
2022/07/05 20:25:13;;;;;;;1.45;1.30;;;22.20;57.30;;;;;;5011402;28;20046;-83
2022/07/05 20:27:39;;;;;;;2.65;1.58;;;22.10;57.20;;;;;;5010014;28;20030;-83
2022/07/05 20:30:05;;;;;;;2.25;1.33;;;22.10;57.30;;;;;;5007941;28;20038;-81
2022/07/05 20:32:31;;;;;;;0.93;0.93;;;22.00;57.40;;;;;;5010002;28;20027;-82
2022/07/05 20:34:58;;;;;;;3.58;1.63;;;21.90;57.70;;;;;;5009455;28;20121;-82
2022/07/05 20:37:25;;;;;;;5.28;1.42;;;21.90;57.20;;;;;;5010892;28;20014;-82
2022/07/05 20:39:51;;;;;;;3.83;1.50;;;21.90;56.70;;;;;;5011158;28;20026;-82
2022/07/05 20:42:18;;;;;;;4.82;1.75;;;21.80;56.80;;;;;;5010812;28;20037;-82
2022/07/05 20:44:44;;;;;;;2.33;1.30;;;21.80;57.10;;;;;;5009696;28;20029;-83
2022/07/05 20:47:09;;;;;;;1.60;1.33;;;21.80;56.90;;;;;;5011326;28;20026;-82
2022/07/05 20:49:35;;;;;;;2.92;1.75;;;21.70;57.50;;;;;;5010767;28;20056;-83
2022/07/05 20:52:01;;;;;;;3.85;1.50;;;21.70;57.10;;;;;;5009281;28;20041;-82
2022/07/05 20:54:27;;;;;;;2.92;1.30;;;21.70;56.90;;;;;;5009228;28;20086;-83
2022/07/05 20:56:52;;;;;;;4.13;1.80;;;21.60;57.10;;;;;;5009625;28;20383;-82
2022/07/05 20:59:18;;;;;;;1.88;1.30;;;21.60;57.20;;;;;;5010793;28;20023;-83
2022/07/05 21:01:44;;;;;;;2.75;1.40;;;21.60;56.70;;;;;;5011181;28;20022;-83
2022/07/05 21:04:10;;;;;;;1.75;1.20;;;21.50;56.80;;;;;;5009731;28;20231;-83
2022/07/05 21:06:36;;;;;;;3.88;1.20;;;21.50;56.80;;;;;;5011141;28;20093;-83
2022/07/05 21:09:02;;;;;;;4.55;1.55;;;21.40;57.20;;;;;;5010807;28;20022;-82
2022/07/05 21:11:28;;;;;;;2.50;1.48;;;21.40;57.20;;;;;;5009854;28;20018;-82
2022/07/05 21:13:53;;;;;;;2.92;1.65;;;21.30;57.40;;;;;;5010454;28;20081;-83